sensor_id;sensor_type;location;lat;lon;timestamp;temperature;humidity
66586;SHT30;53444;45.822;16.092;2022-12-05T00:00:12;4.42;97.74
66586;SHT30;53444;45.822;16.092;2022-12-05T00:02:40;4.42;97.54
66586;SHT30;53444;45.822;16.092;2022-12-05T00:05:09;4.42;97.48
66586;SHT30;53444;45.822;16.092;2022-12-05T00:07:36;4.35;97.68
66586;SHT30;53444;45.822;16.092;2022-12-05T00:10:03;4.45;97.47
66586;SHT30;53444;45.822;16.092;2022-12-05T00:12:30;4.48;97.37
66586;SHT30;53444;45.822;16.092;2022-12-05T00:14:57;4.51;97.35
66586;SHT30;53444;45.822;16.092;2022-12-05T00:17:24;4.53;97.29
66586;SHT30;53444;45.822;16.092;2022-12-05T00:19:52;4.49;97.20
66586;SHT30;53444;45.822;16.092;2022-12-05T00:22:18;4.53;97.37
66586;SHT30;53444;45.822;16.092;2022-12-05T00:24:45;4.59;97.26
66586;SHT30;53444;45.822;16.092;2022-12-05T00:27:12;4.55;97.13
66586;SHT30;53444;45.822;16.092;2022-12-05T00:29:38;4.56;97.27
66586;SHT30;53444;45.822;16.092;2022-12-05T00:32:05;4.49;97.26
66586;SHT30;53444;45.822;16.092;2022-12-05T00:34:31;4.45;97.19
66586;SHT30;53444;45.822;16.092;2022-12-05T00:36:59;4.45;97.50
66586;SHT30;53444;45.822;16.092;2022-12-05T00:39:26;4.46;97.39
66586;SHT30;53444;45.822;16.092;2022-12-05T00:41:52;4.45;97.43
66586;SHT30;53444;45.822;16.092;2022-12-05T00:44:19;4.42;97.57
66586;SHT30;53444;45.822;16.092;2022-12-05T00:46:46;4.53;97.31
66586;SHT30;53444;45.822;16.092;2022-12-05T00:49:12;4.56;97.20
66586;SHT30;53444;45.822;16.092;2022-12-05T00:51:41;4.58;97.07
66586;SHT30;53444;45.822;16.092;2022-12-05T00:54:12;4.60;97.07
66586;SHT30;53444;45.822;16.092;2022-12-05T00:56:40;4.58;97.19
66586;SHT30;53444;45.822;16.092;2022-12-05T00:59:07;4.59;97.10
66586;SHT30;53444;45.822;16.092;2022-12-05T01:01:36;4.56;97.08
66586;SHT30;53444;45.822;16.092;2022-12-05T01:04:05;4.55;97.14
66586;SHT30;53444;45.822;16.092;2022-12-05T01:06:32;4.59;97.09
66586;SHT30;53444;45.822;16.092;2022-12-05T01:08:59;4.56;97.21
66586;SHT30;53444;45.822;16.092;2022-12-05T01:11:27;4.55;97.40
66586;SHT30;53444;45.822;16.092;2022-12-05T01:13:54;4.59;97.36
66586;SHT30;53444;45.822;16.092;2022-12-05T01:16:23;4.60;97.37
66586;SHT30;53444;45.822;16.092;2022-12-05T01:18:50;4.60;97.50
66586;SHT30;53444;45.822;16.092;2022-12-05T01:21:18;4.60;97.43
66586;SHT30;53444;45.822;16.092;2022-12-05T01:23:44;4.60;97.50
66586;SHT30;53444;45.822;16.092;2022-12-05T01:26:13;4.65;97.30
66586;SHT30;53444;45.822;16.092;2022-12-05T01:28:41;4.65;97.19
66586;SHT30;53444;45.822;16.092;2022-12-05T01:31:11;4.65;97.27
66586;SHT30;53444;45.822;16.092;2022-12-05T01:33:39;4.63;97.27
66586;SHT30;53444;45.822;16.092;2022-12-05T01:36:09;4.63;97.18
66586;SHT30;53444;45.822;16.092;2022-12-05T01:38:37;4.65;97.16
66586;SHT30;53444;45.822;16.092;2022-12-05T01:41:06;4.62;97.25
66586;SHT30;53444;45.822;16.092;2022-12-05T01:43:53;4.60;97.32
66586;SHT30;53444;45.822;16.092;2022-12-05T01:46:20;4.63;97.20
66586;SHT30;53444;45.822;16.092;2022-12-05T01:48:47;4.59;97.30
66586;SHT30;53444;45.822;16.092;2022-12-05T01:51:15;4.62;97.25
66586;SHT30;53444;45.822;16.092;2022-12-05T01:53:41;4.66;97.06
66586;SHT30;53444;45.822;16.092;2022-12-05T01:56:08;4.62;97.32
66586;SHT30;53444;45.822;16.092;2022-12-05T01:58:37;4.59;97.30
66586;SHT30;53444;45.822;16.092;2022-12-05T02:01:06;4.59;97.31
66586;SHT30;53444;45.822;16.092;2022-12-05T02:03:34;4.53;97.39
66586;SHT30;53444;45.822;16.092;2022-12-05T02:06:02;4.51;97.42
66586;SHT30;53444;45.822;16.092;2022-12-05T02:08:29;4.56;97.43
66586;SHT30;53444;45.822;16.092;2022-12-05T02:10:56;4.58;97.35
66586;SHT30;53444;45.822;16.092;2022-12-05T02:13:38;4.59;97.13
66586;SHT30;53444;45.822;16.092;2022-12-05T02:16:15;4.59;97.25
66586;SHT30;53444;45.822;16.092;2022-12-05T02:18:51;4.66;97.13
66586;SHT30;53444;45.822;16.092;2022-12-05T02:27:41;4.66;96.84
66586;SHT30;53444;45.822;16.092;2022-12-05T02:30:13;4.60;96.76
66586;SHT30;53444;45.822;16.092;2022-12-05T02:32:49;4.59;97.05
66586;SHT30;53444;45.822;16.092;2022-12-05T02:35:29;4.59;97.10
66586;SHT30;53444;45.822;16.092;2022-12-05T02:38:03;4.66;96.99
66586;SHT30;53444;45.822;16.092;2022-12-05T02:40:41;4.72;97.10
66586;SHT30;53444;45.822;16.092;2022-12-05T02:43:12;4.70;96.92
66586;SHT30;53444;45.822;16.092;2022-12-05T02:45:43;4.59;97.23
66586;SHT30;53444;45.822;16.092;2022-12-05T02:48:11;4.68;97.25
66586;SHT30;53444;45.822;16.092;2022-12-05T02:50:40;4.63;97.20
66586;SHT30;53444;45.822;16.092;2022-12-05T02:53:10;4.56;97.38
66586;SHT30;53444;45.822;16.092;2022-12-05T02:55:39;4.51;97.41
66586;SHT30;53444;45.822;16.092;2022-12-05T02:58:10;4.58;97.31
66586;SHT30;53444;45.822;16.092;2022-12-05T03:00:41;4.59;97.40
66586;SHT30;53444;45.822;16.092;2022-12-05T03:03:13;4.63;97.32
66586;SHT30;53444;45.822;16.092;2022-12-05T03:05:43;4.60;97.33
66586;SHT30;53444;45.822;16.092;2022-12-05T03:08:15;4.63;97.26
66586;SHT30;53444;45.822;16.092;2022-12-05T03:10:44;4.66;97.28
66586;SHT30;53444;45.822;16.092;2022-12-05T03:13:14;4.65;97.26
66586;SHT30;53444;45.822;16.092;2022-12-05T03:15:44;4.65;97.15
66586;SHT30;53444;45.822;16.092;2022-12-05T03:18:16;4.66;97.33
66586;SHT30;53444;45.822;16.092;2022-12-05T03:20:47;4.69;97.30
66586;SHT30;53444;45.822;16.092;2022-12-05T03:23:19;4.62;97.49
66586;SHT30;53444;45.822;16.092;2022-12-05T03:25:52;4.63;97.57
66586;SHT30;53444;45.822;16.092;2022-12-05T03:28:22;4.62;97.25
66586;SHT30;53444;45.822;16.092;2022-12-05T03:30:52;4.70;97.07
66586;SHT30;53444;45.822;16.092;2022-12-05T03:33:23;4.75;96.71
66586;SHT30;53444;45.822;16.092;2022-12-05T03:35:58;4.75;96.81
66586;SHT30;53444;45.822;16.092;2022-12-05T03:38:30;4.68;96.88
66586;SHT30;53444;45.822;16.092;2022-12-05T03:41:05;4.72;96.93
66586;SHT30;53444;45.822;16.092;2022-12-05T03:43:36;4.73;97.04
66586;SHT30;53444;45.822;16.092;2022-12-05T03:46:08;4.70;97.34
66586;SHT30;53444;45.822;16.092;2022-12-05T03:48:43;4.72;97.10
66586;SHT30;53444;45.822;16.092;2022-12-05T03:51:15;4.66;97.07
66586;SHT30;53444;45.822;16.092;2022-12-05T03:53:45;4.59;97.33
66586;SHT30;53444;45.822;16.092;2022-12-05T03:56:17;4.60;97.36
66586;SHT30;53444;45.822;16.092;2022-12-05T03:58:49;4.65;97.31
66586;SHT30;53444;45.822;16.092;2022-12-05T04:03:59;4.59;97.49
66586;SHT30;53444;45.822;16.092;2022-12-05T04:06:29;4.65;97.42
66586;SHT30;53444;45.822;16.092;2022-12-05T04:09:00;4.70;97.22
66586;SHT30;53444;45.822;16.092;2022-12-05T04:11:30;4.70;97.30
66586;SHT30;53444;45.822;16.092;2022-12-05T04:14:00;4.63;97.61
66586;SHT30;53444;45.822;16.092;2022-12-05T04:16:32;4.46;97.95
66586;SHT30;53444;45.822;16.092;2022-12-05T04:19:24;4.44;98.27
66586;SHT30;53444;45.822;16.092;2022-12-05T04:24:23;4.48;96.98
66586;SHT30;53444;45.822;16.092;2022-12-05T04:27:16;4.41;97.30
66586;SHT30;53444;45.822;16.092;2022-12-05T04:29:52;4.42;96.88
66586;SHT30;53444;45.822;16.092;2022-12-05T04:32:22;4.42;97.23
66586;SHT30;53444;45.822;16.092;2022-12-05T04:34:56;4.32;97.24
66586;SHT30;53444;45.822;16.092;2022-12-05T04:37:24;4.41;97.14
66586;SHT30;53444;45.822;16.092;2022-12-05T04:39:56;4.37;97.41
66586;SHT30;53444;45.822;16.092;2022-12-05T04:42:26;4.45;97.28
66586;SHT30;53444;45.822;16.092;2022-12-05T04:44:57;4.51;97.41
66586;SHT30;53444;45.822;16.092;2022-12-05T04:47:28;4.51;97.30
66586;SHT30;53444;45.822;16.092;2022-12-05T04:49:58;4.55;97.05
66586;SHT30;53444;45.822;16.092;2022-12-05T04:52:27;4.53;96.76
66586;SHT30;53444;45.822;16.092;2022-12-05T04:55:00;4.41;97.09
66586;SHT30;53444;45.822;16.092;2022-12-05T04:57:31;4.48;97.14
66586;SHT30;53444;45.822;16.092;2022-12-05T04:59:59;4.52;97.19
66586;SHT30;53444;45.822;16.092;2022-12-05T05:02:30;4.49;97.30
66586;SHT30;53444;45.822;16.092;2022-12-05T05:05:00;4.52;97.36
66586;SHT30;53444;45.822;16.092;2022-12-05T05:07:28;4.51;97.21
66586;SHT30;53444;45.822;16.092;2022-12-05T05:09:55;4.42;97.35
66586;SHT30;53444;45.822;16.092;2022-12-05T05:12:22;4.51;97.30
66586;SHT30;53444;45.822;16.092;2022-12-05T05:14:48;4.52;97.22
66586;SHT30;53444;45.822;16.092;2022-12-05T05:17:15;4.55;97.48
66586;SHT30;53444;45.822;16.092;2022-12-05T05:19:42;4.55;97.19
66586;SHT30;53444;45.822;16.092;2022-12-05T05:22:10;4.59;97.09
66586;SHT30;53444;45.822;16.092;2022-12-05T05:24:36;4.60;97.14
66586;SHT30;53444;45.822;16.092;2022-12-05T05:27:03;4.65;96.98
66586;SHT30;53444;45.822;16.092;2022-12-05T05:29:29;4.41;97.75
66586;SHT30;53444;45.822;16.092;2022-12-05T05:31:56;4.34;97.75
66586;SHT30;53444;45.822;16.092;2022-12-05T05:34:22;4.34;97.71
66586;SHT30;53444;45.822;16.092;2022-12-05T05:36:51;4.34;97.84
66586;SHT30;53444;45.822;16.092;2022-12-05T05:39:19;4.41;97.85
66586;SHT30;53444;45.822;16.092;2022-12-05T05:41:46;4.42;97.60
66586;SHT30;53444;45.822;16.092;2022-12-05T05:44:12;4.46;97.59
66586;SHT30;53444;45.822;16.092;2022-12-05T05:46:39;4.53;97.51
66586;SHT30;53444;45.822;16.092;2022-12-05T05:49:05;4.59;97.38
66586;SHT30;53444;45.822;16.092;2022-12-05T05:51:32;4.60;97.07
66586;SHT30;53444;45.822;16.092;2022-12-05T05:53:59;4.49;96.91
66586;SHT30;53444;45.822;16.092;2022-12-05T05:56:28;4.32;97.65
66586;SHT30;53444;45.822;16.092;2022-12-05T05:58:56;4.29;97.86
66586;SHT30;53444;45.822;16.092;2022-12-05T06:01:23;4.31;97.95
66586;SHT30;53444;45.822;16.092;2022-12-05T06:03:50;4.32;97.83
66586;SHT30;53444;45.822;16.092;2022-12-05T06:06:18;4.34;97.68
66586;SHT30;53444;45.822;16.092;2022-12-05T06:08:45;4.46;97.60
66586;SHT30;53444;45.822;16.092;2022-12-05T06:11:14;4.46;97.47
66586;SHT30;53444;45.822;16.092;2022-12-05T06:13:42;4.44;97.24
66586;SHT30;53444;45.822;16.092;2022-12-05T06:16:10;4.41;97.10
66586;SHT30;53444;45.822;16.092;2022-12-05T06:18:37;4.46;97.06
66586;SHT30;53444;45.822;16.092;2022-12-05T06:21:04;4.51;97.03
66586;SHT30;53444;45.822;16.092;2022-12-05T06:23:33;4.55;97.06
66586;SHT30;53444;45.822;16.092;2022-12-05T06:26:01;4.49;96.99
66586;SHT30;53444;45.822;16.092;2022-12-05T06:28:28;4.44;97.14
66586;SHT30;53444;45.822;16.092;2022-12-05T06:30:56;4.52;97.04
66586;SHT30;53444;45.822;16.092;2022-12-05T06:33:23;4.52;97.06
66586;SHT30;53444;45.822;16.092;2022-12-05T06:36:00;4.49;97.09
66586;SHT30;53444;45.822;16.092;2022-12-05T06:38:27;4.56;96.60
66586;SHT30;53444;45.822;16.092;2022-12-05T06:40:54;4.44;96.94
66586;SHT30;53444;45.822;16.092;2022-12-05T06:43:20;4.35;96.87
66586;SHT30;53444;45.822;16.092;2022-12-05T06:45:47;4.27;97.36
66586;SHT30;53444;45.822;16.092;2022-12-05T06:48:15;4.21;97.31
66586;SHT30;53444;45.822;16.092;2022-12-05T06:50:47;4.22;97.84
66586;SHT30;53444;45.822;16.092;2022-12-05T06:53:13;4.25;97.88
66586;SHT30;53444;45.822;16.092;2022-12-05T06:55:40;4.29;97.64
66586;SHT30;53444;45.822;16.092;2022-12-05T06:58:07;4.32;97.97
66586;SHT30;53444;45.822;16.092;2022-12-05T07:00:33;4.41;97.50
66586;SHT30;53444;45.822;16.092;2022-12-05T07:03:19;4.48;97.13
66586;SHT30;53444;45.822;16.092;2022-12-05T07:05:45;4.37;97.21
66586;SHT30;53444;45.822;16.092;2022-12-05T07:08:12;4.28;97.75
66586;SHT30;53444;45.822;16.092;2022-12-05T07:10:38;4.35;98.08
66586;SHT30;53444;45.822;16.092;2022-12-05T07:13:05;4.42;97.81
66586;SHT30;53444;45.822;16.092;2022-12-05T07:15:32;4.44;98.04
66586;SHT30;53444;45.822;16.092;2022-12-05T07:17:58;4.44;97.94
66586;SHT30;53444;45.822;16.092;2022-12-05T07:20:26;4.45;97.40
66586;SHT30;53444;45.822;16.092;2022-12-05T07:22:53;4.52;97.25
66586;SHT30;53444;45.822;16.092;2022-12-05T07:25:19;4.60;96.90
66586;SHT30;53444;45.822;16.092;2022-12-05T07:27:47;4.66;96.87
66586;SHT30;53444;45.822;16.092;2022-12-05T07:30:14;4.69;96.88
66586;SHT30;53444;45.822;16.092;2022-12-05T07:32:41;4.76;96.51
66586;SHT30;53444;45.822;16.092;2022-12-05T07:35:08;4.80;96.36
66586;SHT30;53444;45.822;16.092;2022-12-05T07:37:36;4.86;96.28
66586;SHT30;53444;45.822;16.092;2022-12-05T07:40:03;4.70;96.51
66586;SHT30;53444;45.822;16.092;2022-12-05T07:42:30;4.66;96.90
66586;SHT30;53444;45.822;16.092;2022-12-05T07:44:57;4.73;97.41
66586;SHT30;53444;45.822;16.092;2022-12-05T07:47:23;4.39;97.15
66586;SHT30;53444;45.822;16.092;2022-12-05T07:49:50;4.45;97.59
66586;SHT30;53444;45.822;16.092;2022-12-05T07:52:16;4.48;97.43
66586;SHT30;53444;45.822;16.092;2022-12-05T07:54:44;4.56;97.35
66586;SHT30;53444;45.822;16.092;2022-12-05T07:57:11;4.48;97.41
66586;SHT30;53444;45.822;16.092;2022-12-05T07:59:38;4.68;97.35
66586;SHT30;53444;45.822;16.092;2022-12-05T08:02:05;4.80;97.64
66586;SHT30;53444;45.822;16.092;2022-12-05T08:04:31;4.92;97.32
66586;SHT30;53444;45.822;16.092;2022-12-05T08:06:58;5.04;96.36
66586;SHT30;53444;45.822;16.092;2022-12-05T08:09:25;4.90;96.38
66586;SHT30;53444;45.822;16.092;2022-12-05T08:11:53;5.01;96.40
66586;SHT30;53444;45.822;16.092;2022-12-05T08:14:19;4.82;96.54
66586;SHT30;53444;45.822;16.092;2022-12-05T08:16:46;4.86;96.95
66586;SHT30;53444;45.822;16.092;2022-12-05T08:19:13;4.75;96.73
66586;SHT30;53444;45.822;16.092;2022-12-05T08:21:41;4.76;97.03
66586;SHT30;53444;45.822;16.092;2022-12-05T08:24:08;4.93;96.72
66586;SHT30;53444;45.822;16.092;2022-12-05T08:26:35;5.09;96.32
66586;SHT30;53444;45.822;16.092;2022-12-05T08:29:06;5.21;96.18
66586;SHT30;53444;45.822;16.092;2022-12-05T08:31:34;5.33;96.09
66586;SHT30;53444;45.822;16.092;2022-12-05T08:34:01;5.37;96.17
66586;SHT30;53444;45.822;16.092;2022-12-05T08:36:29;5.38;95.44
66586;SHT30;53444;45.822;16.092;2022-12-05T08:38:58;5.43;94.96
66586;SHT30;53444;45.822;16.092;2022-12-05T08:41:25;5.34;94.60
66586;SHT30;53444;45.822;16.092;2022-12-05T08:43:54;5.44;95.32
66586;SHT30;53444;45.822;16.092;2022-12-05T08:46:22;5.48;94.95
66586;SHT30;53444;45.822;16.092;2022-12-05T08:48:50;5.37;94.96
66586;SHT30;53444;45.822;16.092;2022-12-05T08:51:17;5.47;95.10
66586;SHT30;53444;45.822;16.092;2022-12-05T08:53:44;5.59;94.76
66586;SHT30;53444;45.822;16.092;2022-12-05T08:56:14;5.81;94.08
66586;SHT30;53444;45.822;16.092;2022-12-05T08:58:41;5.69;93.29
66586;SHT30;53444;45.822;16.092;2022-12-05T09:01:09;5.58;93.53
66586;SHT30;53444;45.822;16.092;2022-12-05T09:03:38;5.51;94.07
66586;SHT30;53444;45.822;16.092;2022-12-05T09:06:06;5.56;93.66
66586;SHT30;53444;45.822;16.092;2022-12-05T09:08:32;5.33;94.46
66586;SHT30;53444;45.822;16.092;2022-12-05T09:11:02;5.26;94.56
66586;SHT30;53444;45.822;16.092;2022-12-05T09:13:29;5.13;95.43
66586;SHT30;53444;45.822;16.092;2022-12-05T09:15:56;5.01;95.84
66586;SHT30;53444;45.822;16.092;2022-12-05T09:18:23;5.19;95.61
66586;SHT30;53444;45.822;16.092;2022-12-05T09:20:52;5.24;96.14
66586;SHT30;53444;45.822;16.092;2022-12-05T09:23:22;5.13;95.68
66586;SHT30;53444;45.822;16.092;2022-12-05T09:25:52;5.33;95.71
66586;SHT30;53444;45.822;16.092;2022-12-05T09:28:20;5.55;95.30
66586;SHT30;53444;45.822;16.092;2022-12-05T09:30:54;5.58;95.37
66586;SHT30;53444;45.822;16.092;2022-12-05T09:33:21;5.75;95.16
66586;SHT30;53444;45.822;16.092;2022-12-05T09:35:48;5.88;94.62
66586;SHT30;53444;45.822;16.092;2022-12-05T09:38:16;5.82;94.16
66586;SHT30;53444;45.822;16.092;2022-12-05T09:40:43;5.52;94.74
66586;SHT30;53444;45.822;16.092;2022-12-05T09:43:20;5.45;95.01
66586;SHT30;53444;45.822;16.092;2022-12-05T09:45:53;5.30;95.65
66586;SHT30;53444;45.822;16.092;2022-12-05T09:48:22;5.24;95.09
66586;SHT30;53444;45.822;16.092;2022-12-05T09:50:55;5.33;95.24
66586;SHT30;53444;45.822;16.092;2022-12-05T09:53:26;5.31;95.84
66586;SHT30;53444;45.822;16.092;2022-12-05T09:55:59;5.20;96.41
66586;SHT30;53444;45.822;16.092;2022-12-05T09:58:37;5.21;96.05
66586;SHT30;53444;45.822;16.092;2022-12-05T10:01:22;5.27;96.26
66586;SHT30;53444;45.822;16.092;2022-12-05T10:04:03;5.44;96.11
66586;SHT30;53444;45.822;16.092;2022-12-05T10:06:37;5.48;95.78
66586;SHT30;53444;45.822;16.092;2022-12-05T10:09:23;5.52;95.95
66586;SHT30;53444;45.822;16.092;2022-12-05T10:11:58;5.56;95.66
66586;SHT30;53444;45.822;16.092;2022-12-05T10:14:44;5.48;94.56
66586;SHT30;53444;45.822;16.092;2022-12-05T10:17:19;5.41;95.36
66586;SHT30;53444;45.822;16.092;2022-12-05T10:19:48;5.45;95.89
66586;SHT30;53444;45.822;16.092;2022-12-05T10:22:21;5.31;96.17
66586;SHT30;53444;45.822;16.092;2022-12-05T10:24:54;5.40;96.23
66586;SHT30;53444;45.822;16.092;2022-12-05T10:27:29;5.37;95.89
66586;SHT30;53444;45.822;16.092;2022-12-05T10:30:01;5.30;95.96
66586;SHT30;53444;45.822;16.092;2022-12-05T10:32:32;5.43;96.37
66586;SHT30;53444;45.822;16.092;2022-12-05T10:35:14;5.38;95.94
66586;SHT30;53444;45.822;16.092;2022-12-05T10:37:47;5.37;95.71
66586;SHT30;53444;45.822;16.092;2022-12-05T10:40:16;5.52;95.57
66586;SHT30;53444;45.822;16.092;2022-12-05T10:42:43;5.66;95.63
66586;SHT30;53444;45.822;16.092;2022-12-05T10:45:16;5.81;95.55
66586;SHT30;53444;45.822;16.092;2022-12-05T10:47:43;5.79;95.89
66586;SHT30;53444;45.822;16.092;2022-12-05T10:50:19;5.88;95.69
66586;SHT30;53444;45.822;16.092;2022-12-05T10:52:47;5.99;95.78
66586;SHT30;53444;45.822;16.092;2022-12-05T10:55:17;6.09;94.99
66586;SHT30;53444;45.822;16.092;2022-12-05T10:57:49;6.09;94.41
66586;SHT30;53444;45.822;16.092;2022-12-05T11:00:20;6.15;94.06
66586;SHT30;53444;45.822;16.092;2022-12-05T11:02:48;6.32;93.85
66586;SHT30;53444;45.822;16.092;2022-12-05T11:05:28;6.37;93.80
66586;SHT30;53444;45.822;16.092;2022-12-05T11:07:58;6.50;93.85
66586;SHT30;53444;45.822;16.092;2022-12-05T11:10:32;6.74;93.84
66586;SHT30;53444;45.822;16.092;2022-12-05T11:13:00;6.58;93.15
66586;SHT30;53444;45.822;16.092;2022-12-05T11:15:31;6.60;93.30
66586;SHT30;53444;45.822;16.092;2022-12-05T11:18:17;6.56;93.25
66586;SHT30;53444;45.822;16.092;2022-12-05T11:20:44;6.54;93.73
66586;SHT30;53444;45.822;16.092;2022-12-05T11:23:25;6.46;94.64
66586;SHT30;53444;45.822;16.092;2022-12-05T11:25:57;6.46;94.43
66586;SHT30;53444;45.822;16.092;2022-12-05T11:28:32;6.56;94.21
66586;SHT30;53444;45.822;16.092;2022-12-05T11:31:02;6.51;92.85
66586;SHT30;53444;45.822;16.092;2022-12-05T11:33:30;6.57;93.64
66586;SHT30;53444;45.822;16.092;2022-12-05T11:36:02;6.50;94.23
66586;SHT30;53444;45.822;16.092;2022-12-05T11:38:29;6.60;93.80
66586;SHT30;53444;45.822;16.092;2022-12-05T11:41:21;6.36;94.05
66586;SHT30;53444;45.822;16.092;2022-12-05T11:44:02;6.36;94.38
66586;SHT30;53444;45.822;16.092;2022-12-05T11:46:36;6.37;94.32
66586;SHT30;53444;45.822;16.092;2022-12-05T11:49:22;6.46;94.30
66586;SHT30;53444;45.822;16.092;2022-12-05T11:52:01;6.47;94.19
66586;SHT30;53444;45.822;16.092;2022-12-05T11:54:48;6.40;94.47
66586;SHT30;53444;45.822;16.092;2022-12-05T11:57:27;6.47;94.17
66586;SHT30;53444;45.822;16.092;2022-12-05T12:00:17;6.38;94.35
66586;SHT30;53444;45.822;16.092;2022-12-05T12:03:03;6.47;94.45
66586;SHT30;53444;45.822;16.092;2022-12-05T12:05:39;6.43;94.36
66586;SHT30;53444;45.822;16.092;2022-12-05T12:08:16;6.47;94.50
66586;SHT30;53444;45.822;16.092;2022-12-05T12:10:48;6.56;94.25
66586;SHT30;53444;45.822;16.092;2022-12-05T12:13:29;6.50;94.02
66586;SHT30;53444;45.822;16.092;2022-12-05T12:16:04;6.53;93.85
66586;SHT30;53444;45.822;16.092;2022-12-05T12:18:51;6.48;94.18
66586;SHT30;53444;45.822;16.092;2022-12-05T12:21:26;6.57;93.64
66586;SHT30;53444;45.822;16.092;2022-12-05T12:24:04;6.48;94.37
66586;SHT30;53444;45.822;16.092;2022-12-05T12:26:40;6.48;94.32
66586;SHT30;53444;45.822;16.092;2022-12-05T12:29:21;6.50;94.59
66586;SHT30;53444;45.822;16.092;2022-12-05T12:32:02;6.48;94.89
66586;SHT30;53444;45.822;16.092;2022-12-05T12:34:51;6.44;95.05
66586;SHT30;53444;45.822;16.092;2022-12-05T12:37:29;6.38;95.35
66586;SHT30;53444;45.822;16.092;2022-12-05T12:40:04;6.36;95.14
66586;SHT30;53444;45.822;16.092;2022-12-05T12:42:38;6.34;95.22
66586;SHT30;53444;45.822;16.092;2022-12-05T12:45:38;6.29;94.94
66586;SHT30;53444;45.822;16.092;2022-12-05T12:48:21;6.29;95.19
66586;SHT30;53444;45.822;16.092;2022-12-05T12:50:53;6.23;95.43
66586;SHT30;53444;45.822;16.092;2022-12-05T12:56:27;6.29;95.48
66586;SHT30;53444;45.822;16.092;2022-12-05T12:59:12;6.29;95.31
66586;SHT30;53444;45.822;16.092;2022-12-05T13:01:48;6.29;95.53
66586;SHT30;53444;45.822;16.092;2022-12-05T13:04:22;6.34;95.38
66586;SHT30;53444;45.822;16.092;2022-12-05T13:06:53;6.29;95.93
66586;SHT30;53444;45.822;16.092;2022-12-05T13:09:22;6.26;95.93
66586;SHT30;53444;45.822;16.092;2022-12-05T13:11:51;6.29;95.94
66586;SHT30;53444;45.822;16.092;2022-12-05T13:14:20;6.25;95.78
66586;SHT30;53444;45.822;16.092;2022-12-05T13:16:53;6.26;95.59
66586;SHT30;53444;45.822;16.092;2022-12-05T13:19:25;6.30;95.49
66586;SHT30;53444;45.822;16.092;2022-12-05T13:21:54;6.30;95.82
66586;SHT30;53444;45.822;16.092;2022-12-05T13:24:24;6.33;95.56
66586;SHT30;53444;45.822;16.092;2022-12-05T13:26:52;6.29;95.83
66586;SHT30;53444;45.822;16.092;2022-12-05T13:29:20;6.27;95.97
66586;SHT30;53444;45.822;16.092;2022-12-05T13:31:48;6.15;96.41
66586;SHT30;53444;45.822;16.092;2022-12-05T13:34:42;6.10;96.66
66586;SHT30;53444;45.822;16.092;2022-12-05T13:37:16;6.13;96.49
66586;SHT30;53444;45.822;16.092;2022-12-05T13:40:03;6.19;96.37
66586;SHT30;53444;45.822;16.092;2022-12-05T13:42:58;6.22;96.25
66586;SHT30;53444;45.822;16.092;2022-12-05T13:45:26;6.22;96.28
66586;SHT30;53444;45.822;16.092;2022-12-05T13:48:03;6.25;96.14
66586;SHT30;53444;45.822;16.092;2022-12-05T13:50:41;6.29;96.29
66586;SHT30;53444;45.822;16.092;2022-12-05T13:53:22;6.27;96.26
66586;SHT30;53444;45.822;16.092;2022-12-05T13:55:55;6.27;96.48
66586;SHT30;53444;45.822;16.092;2022-12-05T13:58:46;6.32;96.35
66586;SHT30;53444;45.822;16.092;2022-12-05T14:01:41;6.25;96.60
66586;SHT30;53444;45.822;16.092;2022-12-05T14:07:07;6.26;96.67
66586;SHT30;53444;45.822;16.092;2022-12-05T14:09:49;6.30;96.40
66586;SHT30;53444;45.822;16.092;2022-12-05T14:15:32;6.30;96.28
66586;SHT30;53444;45.822;16.092;2022-12-05T14:18:13;6.07;97.10
66586;SHT30;53444;45.822;16.092;2022-12-05T14:20:51;6.12;97.20
66586;SHT30;53444;45.822;16.092;2022-12-05T14:23:44;6.10;97.68
66586;SHT30;53444;45.822;16.092;2022-12-05T14:26:25;5.95;98.27
66586;SHT30;53444;45.822;16.092;2022-12-05T14:29:27;6.03;98.01
66586;SHT30;53444;45.822;16.092;2022-12-05T14:32:04;6.03;97.75
66586;SHT30;53444;45.822;16.092;2022-12-05T14:34:37;6.09;97.68
66586;SHT30;53444;45.822;16.092;2022-12-05T14:37:24;6.09;97.94
66586;SHT30;53444;45.822;16.092;2022-12-05T14:39:57;6.17;97.55
66586;SHT30;53444;45.822;16.092;2022-12-05T14:42:31;6.19;97.49
66586;SHT30;53444;45.822;16.092;2022-12-05T14:45:02;6.20;97.33
66586;SHT30;53444;45.822;16.092;2022-12-05T14:47:48;6.15;97.21
66586;SHT30;53444;45.822;16.092;2022-12-05T14:50:34;6.16;97.31
66586;SHT30;53444;45.822;16.092;2022-12-05T14:56:08;6.13;97.39
66586;SHT30;53444;45.822;16.092;2022-12-05T14:58:40;6.09;97.68
66586;SHT30;53444;45.822;16.092;2022-12-05T15:01:17;6.02;98.15
66586;SHT30;53444;45.822;16.092;2022-12-05T15:04:01;6.03;98.06
66586;SHT30;53444;45.822;16.092;2022-12-05T15:06:32;6.05;98.14
66586;SHT30;53444;45.822;16.092;2022-12-05T15:09:03;6.02;98.09
66586;SHT30;53444;45.822;16.092;2022-12-05T15:11:33;6.05;98.06
66586;SHT30;53444;45.822;16.092;2022-12-05T15:14:09;5.96;98.38
66586;SHT30;53444;45.822;16.092;2022-12-05T15:16:42;5.99;98.51
66586;SHT30;53444;45.822;16.092;2022-12-05T15:19:16;6.01;98.54
66586;SHT30;53444;45.822;16.092;2022-12-05T15:21:45;5.99;98.64
66586;SHT30;53444;45.822;16.092;2022-12-05T15:24:15;5.92;98.91
66586;SHT30;53444;45.822;16.092;2022-12-05T15:26:44;5.92;98.82
66586;SHT30;53444;45.822;16.092;2022-12-05T15:29:15;5.93;98.48
66586;SHT30;53444;45.822;16.092;2022-12-05T15:31:44;5.86;98.64
66586;SHT30;53444;45.822;16.092;2022-12-05T15:34:16;5.88;98.66
66586;SHT30;53444;45.822;16.092;2022-12-05T15:36:51;5.86;98.53
66586;SHT30;53444;45.822;16.092;2022-12-05T15:39:23;5.95;98.48
66586;SHT30;53444;45.822;16.092;2022-12-05T15:41:52;5.93;98.25
66586;SHT30;53444;45.822;16.092;2022-12-05T15:44:28;5.88;98.22
66586;SHT30;53444;45.822;16.092;2022-12-05T15:46:55;5.81;98.42
66586;SHT30;53444;45.822;16.092;2022-12-05T15:49:24;5.85;98.28
66586;SHT30;53444;45.822;16.092;2022-12-05T15:51:54;5.86;98.18
66586;SHT30;53444;45.822;16.092;2022-12-05T15:54:27;5.86;98.21
66586;SHT30;53444;45.822;16.092;2022-12-05T15:57:02;5.85;98.10
66586;SHT30;53444;45.822;16.092;2022-12-05T15:59:36;5.84;98.20
66586;SHT30;53444;45.822;16.092;2022-12-05T16:02:10;5.82;98.19
66586;SHT30;53444;45.822;16.092;2022-12-05T16:04:43;5.82;98.35
66586;SHT30;53444;45.822;16.092;2022-12-05T16:07:12;5.81;98.21
66586;SHT30;53444;45.822;16.092;2022-12-05T16:09:40;5.76;98.31
66586;SHT30;53444;45.822;16.092;2022-12-05T16:12:19;5.81;98.22
66586;SHT30;53444;45.822;16.092;2022-12-05T16:14:50;5.85;98.14
66586;SHT30;53444;45.822;16.092;2022-12-05T16:17:19;5.86;97.99
66586;SHT30;53444;45.822;16.092;2022-12-05T16:19:46;5.82;97.99